Cape Cod — WBK3243 — position and weather

sailwx.info

Track history (hours):
 
Tides and Currents Weather Stations Pressure Air Temp Water Temp Dewpoint Dewpoint Depression Visibility Wind Speed Wind Dir Waves Ship Positions

Cape Cod

Owner: MORAN TOWING CORPORATION, New Canaan, CT. More information available from US FCC via Universal Licensing System and Coast Guard Vessel Documentation Center.

Last reported at 2015-Mar-31 02:33 UTC. Time now 2015-Mar-31 03:21 UTC.
Position N 39°55' W 075°07'.

Length 33 m; draft 4.8 m.

Type: Tug. MMSI: 366939770.

Date/timePositionNaut miles runAvg speedWind from/ knotsBaromVisibWave heightAir tempDewpointWater temp
2015-Mar-31 02:33N 39°55' W 075°07'0 0.2
2015-Mar-31 01:33N 39°55' W 075°08'1 0.8
2015-Mar-31 00:33N 39°54' W 075°08'2 2.5
2015-Mar-30 23:33N 39°53' W 075°11'1 1.1
2015-Mar-30 22:33N 39°53' W 075°09'1 1.0
2015-Mar-30 21:33N 39°53' W 075°11'0 0.0
2015-Mar-30 20:33N 39°53' W 075°11'0 0.0
2015-Mar-30 19:33N 39°53' W 075°11'0 0.0
2015-Mar-30 18:33N 39°53' W 075°11'0 0.0
2015-Mar-30 17:33N 39°53' W 075°11'0 0.0
2015-Mar-30 16:33N 39°53' W 075°11'0 0.0
2015-Mar-30 15:33N 39°53' W 075°11'1 0.8
2015-Mar-30 14:33N 39°54' W 075°12'1 0.8
2015-Mar-30 13:33N 39°53' W 075°11'3 3.4
2015-Mar-30 12:33N 39°56' W 075°08'2 1.9
2015-Mar-30 11:33N 39°58' W 075°07'6 6.2
2015-Mar-30 10:33N 39°53' W 075°12'9 9.1
2015-Mar-30 09:33N 39°49' W 075°23'9 8.7
2015-Mar-30 08:33N 39°43' W 075°30'8 7.9
2015-Mar-30 07:33N 39°35' W 075°34'8 7.5
2015-Mar-30 06:33N 39°28' W 075°34'7 7.4
2015-Mar-30 05:33N 39°22' W 075°28'27 8.3
2015-Mar-30 02:21N 39°00' W 075°08'5 6.7
2015-Mar-30 01:33N 38°55' W 075°06'1712.0
2015-Mar-30 00:10N 39°10' W 075°16'812.3
2015-Mar-29 23:33N 39°17' W 075°21'1211.6
2015-Mar-29 22:33N 39°25' W 075°31'1010.2
2015-Mar-29 21:34N 39°35' W 075°34'1111.0
2015-Mar-29 20:33N 39°46' W 075°29'1111.4
2015-Mar-29 19:33N 39°51' W 075°16'5 4.6
2015-Mar-29 18:33N 39°53' W 075°11'0 0.0
2015-Mar-29 17:34N 39°53' W 075°11'0 0.0
2015-Mar-29 16:33N 39°53' W 075°11'0 0.0
2015-Mar-29 15:33N 39°53' W 075°11'0 0.0
2015-Mar-29 14:33N 39°53' W 075°11'0 0.0
2015-Mar-29 13:33N 39°53' W 075°11'0 0.0
2015-Mar-29 12:33N 39°53' W 075°11'0 0.0
2015-Mar-29 11:34N 39°53' W 075°11'0 0.0
2015-Mar-29 10:33N 39°53' W 075°11'2 2.5
2015-Mar-29 09:33N 39°54' W 075°08'2 2.5
2015-Mar-29 08:33N 39°53' W 075°10'0 0.2
2015-Mar-29 07:33N 39°53' W 075°11'0 0.0
2015-Mar-29 06:34N 39°53' W 075°11'0 0.0
2015-Mar-29 05:34N 39°53' W 075°11'0 0.0
2015-Mar-29 04:34N 39°53' W 075°11'0 0.0
2015-Mar-29 03:33N 39°53' W 075°11'0 0.0
2015-Mar-29 02:33N 39°53' W 075°11'0 0.0
2015-Mar-29 01:33N 39°53' W 075°11'0 0.0
2015-Mar-29 00:33N 39°53' W 075°11'0 0.0
2015-Mar-28 23:33N 39°53' W 075°11'0 0.0
2015-Mar-28 22:33N 39°53' W 075°11'0 0.0
2015-Mar-28 21:33N 39°53' W 075°11'0 0.0
2015-Mar-28 20:33N 39°53' W 075°11'0 0.0
2015-Mar-28 19:33N 39°53' W 075°11'0 0.0
2015-Mar-28 18:33N 39°53' W 075°11'0 0.0
2015-Mar-28 17:33N 39°53' W 075°11'0 0.0
2015-Mar-28 16:33N 39°53' W 075°11'0 0.0
2015-Mar-28 15:33N 39°53' W 075°11'0 0.0
2015-Mar-28 14:34N 39°53' W 075°11'0 0.0
2015-Mar-28 13:33N 39°53' W 075°11'0 0.0
2015-Mar-28 12:33N 39°53' W 075°11'2 2.4
2015-Mar-28 11:33N 39°54' W 075°08'1 1.2
2015-Mar-28 10:33N 39°53' W 075°09'1 0.8
2015-Mar-28 09:33N 39°54' W 075°08'0 0.0
2015-Mar-28 08:33N 39°54' W 075°08'0 0.0
2015-Mar-28 07:33N 39°54' W 075°08'0 0.0
2015-Mar-28 06:33N 39°54' W 075°08'0 0.0
2015-Mar-28 05:34N 39°54' W 075°08'1 1.5
2015-Mar-28 04:34N 39°53' W 075°10'1 0.9
2015-Mar-28 03:33N 39°53' W 075°11'0 0.0
2015-Mar-28 02:33N 39°53' W 075°11'1 1.0
2015-Mar-28 01:33N 39°53' W 075°12'1010.4
2015-Mar-28 00:33N 39°49' W 075°24'1212.3
2015-Mar-27 23:33N 39°39' W 075°34'5 4.8
2015-Mar-27 22:34N 39°34' W 075°33'2 2.2
2015-Mar-27 21:33N 39°35' W 075°35'2 1.7
2015-Mar-27 20:33N 39°37' W 075°35'9 9.0
2015-Mar-27 19:33N 39°45' W 075°30'1111.2
2015-Mar-27 18:33N 39°51' W 075°17'6 5.7
2015-Mar-27 17:33N 39°53' W 075°11'0 0.0
2015-Mar-27 16:33N 39°53' W 075°11'0 0.0
2015-Mar-27 15:33N 39°53' W 075°11'0 0.0
2015-Mar-27 14:33N 39°53' W 075°11'1 0.8
2015-Mar-27 13:33N 39°54' W 075°12'1 0.8
2015-Mar-27 12:33N 39°53' W 075°11'0 0.0
2015-Mar-27 11:33N 39°53' W 075°11'0 0.0
2015-Mar-27 10:33N 39°53' W 075°11'0 0.0
2015-Mar-27 09:33N 39°53' W 075°11'0 0.0
2015-Mar-27 08:33N 39°53' W 075°11'0 0.0
2015-Mar-27 07:33N 39°53' W 075°11'0 0.0
2015-Mar-27 06:33N 39°53' W 075°11'0 0.0
2015-Mar-27 05:33N 39°53' W 075°11'0 0.0
2015-Mar-27 04:33N 39°53' W 075°11'0 0.0
2015-Mar-27 03:33N 39°53' W 075°11'0 0.0
2015-Mar-27 02:33N 39°53' W 075°11'0 0.0
2015-Mar-27 01:33N 39°53' W 075°11'0 0.0
2015-Mar-27 00:33N 39°53' W 075°11'2 1.5
2015-Mar-26 23:33N 39°53' W 075°09'2 2.0
2015-Mar-26 22:33N 39°55' W 075°08'1 1.2
2015-Mar-26 21:33N 39°54' W 075°08'2 2.0
2015-Mar-26 20:33N 39°53' W 075°11'0 0.0
2015-Mar-26 19:33N 39°53' W 075°11'1 0.8
2015-Mar-26 18:33N 39°54' W 075°12'0 0.0
2015-Mar-26 17:33N 39°54' W 075°12'0 0.0
2015-Mar-26 16:33N 39°54' W 075°12'2 2.5
2015-Mar-26 15:33N 39°52' W 075°14'9 8.6
2015-Mar-26 14:33N 39°49' W 075°24'3 2.8
2015-Mar-26 13:33N 39°50' W 075°21'9 8.6
2015-Mar-26 12:33N 39°53' W 075°11'0 0.0
2015-Mar-26 11:33N 39°53' W 075°11'0 0.0
2015-Mar-26 10:33N 39°53' W 075°11'0 0.0
2015-Mar-26 09:33N 39°53' W 075°11'0 0.0
2015-Mar-26 08:33N 39°53' W 075°11'0 0.0
2015-Mar-26 07:33N 39°53' W 075°11'0 0.0
2015-Mar-26 06:33N 39°53' W 075°11'0 0.0
2015-Mar-26 05:33N 39°53' W 075°11'0 0.0
2015-Mar-26 04:33N 39°53' W 075°11'1 1.0
2015-Mar-26 03:33N 39°53' W 075°09'2 1.6
2015-Mar-26 02:33N 39°53' W 075°11'0 0.4
2015-Mar-26 01:33N 39°53' W 075°11'0 0.4
2015-Mar-26 00:33N 39°53' W 075°11'0 0.0
2015-Mar-25 23:33N 39°53' W 075°11'0 0.0
2015-Mar-25 22:33N 39°53' W 075°11'0 0.0
2015-Mar-25 21:33N 39°53' W 075°11'0 0.0
2015-Mar-25 20:33N 39°53' W 075°11'0 0.0
2015-Mar-25 19:32N 39°53' W 075°11'3 3.1
2015-Mar-25 18:33N 39°51' W 075°14'1211.8
2015-Mar-25 17:33N 39°47' W 075°28'1211.9
2015-Mar-25 16:33N 39°36' W 075°34'1212.3
2015-Mar-25 15:33N 39°24' W 075°29'25 0.7
2015-Mar-24 04:34N 39°49' W 075°24'5 5.4
2015-Mar-24 03:33N 39°51' W 075°18'6 5.9
2015-Mar-24 02:33N 39°53' W 075°11'0 0.0
2015-Mar-24 01:34N 39°53' W 075°11'0 0.0
2015-Mar-24 00:33N 39°53' W 075°11'0 0.0
2015-Mar-23 23:33N 39°53' W 075°11'5 5.0
2015-Mar-23 22:33N 39°58' W 075°08'1 1.0
2015-Mar-23 21:33N 39°58' W 075°07'6 6.0
2015-Mar-23 20:33N 39°53' W 075°10'1010.5
2015-Mar-23 19:33N 39°49' W 075°23'1110.7
2015-Mar-23 18:33N 39°41' W 075°31'1010.1
2015-Mar-23 17:33N 39°31' W 075°33'1010.4
2015-Mar-23 16:33N 39°21' W 075°27'1211.7
2015-Mar-23 15:33N 39°12' W 075°17'1211.3
2015-Mar-23 14:28N 39°02' W 075°09'7 8.1
2015-Mar-23 13:33N 38°55' W 075°06'13 9.1
2015-Mar-23 12:04N 39°07' W 075°13'612.4
2015-Mar-23 11:34N 39°13' W 075°17'1615.9
2015-Mar-23 10:34N 39°25' W 075°31'1414.1
2015-Mar-23 09:34N 39°39' W 075°33'1312.9
2015-Mar-23 08:33N 39°49' W 075°23'1110.6
2015-Mar-23 07:33N 39°53' W 075°11'0 0.0
2015-Mar-23 06:33N 39°53' W 075°11'1 1.2
2015-Mar-23 05:33N 39°54' W 075°12'1 1.2
2015-Mar-23 04:33N 39°53' W 075°11'0 0.0
2015-Mar-23 03:33N 39°53' W 075°11'3 2.7
2015-Mar-23 02:33N 39°55' W 075°08'1010.2
2015-Mar-23 01:33N 40°03' W 074°59'12 9.9
2015-Mar-23 00:21N 40°08' W 074°45'4 1.9
2015-Mar-22 22:25N 40°07' W 074°50'1011.3
2015-Mar-22 21:33N 40°01' W 075°00'10 9.9
2015-Mar-22 20:33N 39°54' W 075°08'2 1.9
2015-Mar-22 19:33N 39°53' W 075°11'0 0.0
2015-Mar-22 18:33N 39°53' W 075°11'0 0.0
2015-Mar-22 17:33N 39°53' W 075°11'0 0.0
2015-Mar-22 16:33N 39°53' W 075°11'3 2.6
2015-Mar-22 15:33N 39°54' W 075°08'3 2.6
2015-Mar-22 14:33N 39°53' W 075°11'0 0.0
2015-Mar-22 13:33N 39°53' W 075°11'0 0.0
2015-Mar-22 12:33N 39°53' W 075°11'0 0.0
2015-Mar-22 11:33N 39°53' W 075°11'0 0.0
2015-Mar-22 10:33N 39°53' W 075°11'0 0.0
2015-Mar-22 09:33N 39°53' W 075°11'7 6.5
2015-Mar-22 08:33N 39°59' W 075°06'2 2.5
2015-Mar-22 07:33N 39°57' W 075°08'1 0.8
2015-Mar-22 06:33N 39°56' W 075°08'0 0.1
2015-Mar-22 05:33N 39°56' W 075°08'0 0.1
2015-Mar-22 04:33N 39°56' W 075°08'0 0.2
2015-Mar-22 03:33N 39°56' W 075°08'0 0.3
2015-Mar-22 02:33N 39°56' W 075°08'0 0.0
2015-Mar-22 01:33N 39°56' W 075°08'0 0.0
2015-Mar-22 00:33N 39°56' W 075°08'0 0.0
2015-Mar-21 23:33N 39°56' W 075°08'2 2.2
2015-Mar-21 22:33N 39°54' W 075°08'2 2.2
2015-Mar-21 21:33N 39°53' W 075°11'0 0.0
2015-Mar-21 20:33N 39°53' W 075°11'0 0.0
2015-Mar-21 19:33N 39°53' W 075°11'0 0.0
2015-Mar-21 18:33N 39°53' W 075°11'0 0.0
2015-Mar-21 17:33N 39°53' W 075°11'0 0.0
2015-Mar-21 16:33N 39°53' W 075°11'0 0.0
2015-Mar-21 15:33N 39°53' W 075°11'0 0.0
2015-Mar-21 14:33N 39°53' W 075°11'0 0.0
2015-Mar-21 13:33N 39°53' W 075°11'1 0.9
2015-Mar-21 12:33N 39°53' W 075°10'1 1.5
2015-Mar-21 11:33N 39°53' W 075°11'1 0.7
2015-Mar-21 10:33N 39°53' W 075°11'0 0.0
2015-Mar-21 09:33N 39°53' W 075°11'0 0.0
2015-Mar-21 08:33N 39°53' W 075°11'2 2.1
2015-Mar-21 07:33N 39°54' W 075°08'2 2.4
2015-Mar-21 06:33N 39°53' W 075°11'2 2.2
2015-Mar-21 05:33N 39°54' W 075°08'2 2.0
2015-Mar-21 04:33N 39°53' W 075°11'0 0.0
2015-Mar-21 03:33N 39°53' W 075°11'  
Track history (hours):
 
Tides and Currents Weather Stations Pressure Air Temp Water Temp Dewpoint Dewpoint Depression Visibility Wind Speed Wind Dir Waves Ship Positions

Cape Cod

Owner: MORAN TOWING CORPORATION, New Canaan, CT. More information available from US FCC via Universal Licensing System and Coast Guard Vessel Documentation Center.

Last reported at 2015-Mar-31 02:33 UTC. Time now 2015-Mar-31 03:21 UTC.
Position N 39°55' W 075°07'.

Length 33 m; draft 4.8 m.

Type: Tug. MMSI: 366939770.

Date/timePositionNaut miles runAvg speedWind from/ knotsBaromVisibWave heightAir tempDewpointWater temp
2015-Mar-31 02:33N 39°55' W 075°07'0 0.2
2015-Mar-31 01:33N 39°55' W 075°08'1 0.8
2015-Mar-31 00:33N 39°54' W 075°08'2 2.5
2015-Mar-30 23:33N 39°53' W 075°11'1 1.1
2015-Mar-30 22:33N 39°53' W 075°09'1 1.0
2015-Mar-30 21:33N 39°53' W 075°11'0 0.0
2015-Mar-30 20:33N 39°53' W 075°11'0 0.0
2015-Mar-30 19:33N 39°53' W 075°11'0 0.0
2015-Mar-30 18:33N 39°53' W 075°11'0 0.0
2015-Mar-30 17:33N 39°53' W 075°11'0 0.0
2015-Mar-30 16:33N 39°53' W 075°11'0 0.0
2015-Mar-30 15:33N 39°53' W 075°11'1 0.8
2015-Mar-30 14:33N 39°54' W 075°12'1 0.8
2015-Mar-30 13:33N 39°53' W 075°11'3 3.4
2015-Mar-30 12:33N 39°56' W 075°08'2 1.9
2015-Mar-30 11:33N 39°58' W 075°07'6 6.2
2015-Mar-30 10:33N 39°53' W 075°12'9 9.1
2015-Mar-30 09:33N 39°49' W 075°23'9 8.7
2015-Mar-30 08:33N 39°43' W 075°30'8 7.9
2015-Mar-30 07:33N 39°35' W 075°34'8 7.5
2015-Mar-30 06:33N 39°28' W 075°34'7 7.4
2015-Mar-30 05:33N 39°22' W 075°28'27 8.3
2015-Mar-30 02:21N 39°00' W 075°08'5 6.7
2015-Mar-30 01:33N 38°55' W 075°06'1712.0
2015-Mar-30 00:10N 39°10' W 075°16'812.3
2015-Mar-29 23:33N 39°17' W 075°21'1211.6
2015-Mar-29 22:33N 39°25' W 075°31'1010.2
2015-Mar-29 21:34N 39°35' W 075°34'1111.0
2015-Mar-29 20:33N 39°46' W 075°29'1111.4
2015-Mar-29 19:33N 39°51' W 075°16'5 4.6
2015-Mar-29 18:33N 39°53' W 075°11'0 0.0
2015-Mar-29 17:34N 39°53' W 075°11'0 0.0
2015-Mar-29 16:33N 39°53' W 075°11'0 0.0
2015-Mar-29 15:33N 39°53' W 075°11'0 0.0
2015-Mar-29 14:33N 39°53' W 075°11'0 0.0
2015-Mar-29 13:33N 39°53' W 075°11'0 0.0
2015-Mar-29 12:33N 39°53' W 075°11'0 0.0
2015-Mar-29 11:34N 39°53' W 075°11'0 0.0
2015-Mar-29 10:33N 39°53' W 075°11'2 2.5
2015-Mar-29 09:33N 39°54' W 075°08'2 2.5
2015-Mar-29 08:33N 39°53' W 075°10'0 0.2
2015-Mar-29 07:33N 39°53' W 075°11'0 0.0
2015-Mar-29 06:34N 39°53' W 075°11'0 0.0
2015-Mar-29 05:34N 39°53' W 075°11'0 0.0
2015-Mar-29 04:34N 39°53' W 075°11'0 0.0
2015-Mar-29 03:33N 39°53' W 075°11'0 0.0
2015-Mar-29 02:33N 39°53' W 075°11'0 0.0
2015-Mar-29 01:33N 39°53' W 075°11'0 0.0
2015-Mar-29 00:33N 39°53' W 075°11'0 0.0
2015-Mar-28 23:33N 39°53' W 075°11'0 0.0
2015-Mar-28 22:33N 39°53' W 075°11'0 0.0
2015-Mar-28 21:33N 39°53' W 075°11'0 0.0
2015-Mar-28 20:33N 39°53' W 075°11'0 0.0
2015-Mar-28 19:33N 39°53' W 075°11'0 0.0
2015-Mar-28 18:33N 39°53' W 075°11'0 0.0
2015-Mar-28 17:33N 39°53' W 075°11'0 0.0
2015-Mar-28 16:33N 39°53' W 075°11'0 0.0
2015-Mar-28 15:33N 39°53' W 075°11'0 0.0
2015-Mar-28 14:34N 39°53' W 075°11'0 0.0
2015-Mar-28 13:33N 39°53' W 075°11'0 0.0
2015-Mar-28 12:33N 39°53' W 075°11'2 2.4
2015-Mar-28 11:33N 39°54' W 075°08'1 1.2
2015-Mar-28 10:33N 39°53' W 075°09'1 0.8
2015-Mar-28 09:33N 39°54' W 075°08'0 0.0
2015-Mar-28 08:33N 39°54' W 075°08'0 0.0
2015-Mar-28 07:33N 39°54' W 075°08'0 0.0
2015-Mar-28 06:33N 39°54' W 075°08'0 0.0
2015-Mar-28 05:34N 39°54' W 075°08'1 1.5
2015-Mar-28 04:34N 39°53' W 075°10'1 0.9
2015-Mar-28 03:33N 39°53' W 075°11'0 0.0
2015-Mar-28 02:33N 39°53' W 075°11'1 1.0
2015-Mar-28 01:33N 39°53' W 075°12'1010.4
2015-Mar-28 00:33N 39°49' W 075°24'1212.3
2015-Mar-27 23:33N 39°39' W 075°34'5 4.8
2015-Mar-27 22:34N 39°34' W 075°33'2 2.2
2015-Mar-27 21:33N 39°35' W 075°35'2 1.7
2015-Mar-27 20:33N 39°37' W 075°35'9 9.0
2015-Mar-27 19:33N 39°45' W 075°30'1111.2
2015-Mar-27 18:33N 39°51' W 075°17'6 5.7
2015-Mar-27 17:33N 39°53' W 075°11'0 0.0
2015-Mar-27 16:33N 39°53' W 075°11'0 0.0
2015-Mar-27 15:33N 39°53' W 075°11'0 0.0
2015-Mar-27 14:33N 39°53' W 075°11'1 0.8
2015-Mar-27 13:33N 39°54' W 075°12'1 0.8
2015-Mar-27 12:33N 39°53' W 075°11'0 0.0
2015-Mar-27 11:33N 39°53' W 075°11'0 0.0
2015-Mar-27 10:33N 39°53' W 075°11'0 0.0
2015-Mar-27 09:33N 39°53' W 075°11'0 0.0
2015-Mar-27 08:33N 39°53' W 075°11'0 0.0
2015-Mar-27 07:33N 39°53' W 075°11'0 0.0
2015-Mar-27 06:33N 39°53' W 075°11'0 0.0
2015-Mar-27 05:33N 39°53' W 075°11'0 0.0
2015-Mar-27 04:33N 39°53' W 075°11'0 0.0
2015-Mar-27 03:33N 39°53' W 075°11'0 0.0
2015-Mar-27 02:33N 39°53' W 075°11'0 0.0
2015-Mar-27 01:33N 39°53' W 075°11'0 0.0
2015-Mar-27 00:33N 39°53' W 075°11'2 1.5
2015-Mar-26 23:33N 39°53' W 075°09'2 2.0
2015-Mar-26 22:33N 39°55' W 075°08'1 1.2
2015-Mar-26 21:33N 39°54' W 075°08'2 2.0
2015-Mar-26 20:33N 39°53' W 075°11'0 0.0
2015-Mar-26 19:33N 39°53' W 075°11'1 0.8
2015-Mar-26 18:33N 39°54' W 075°12'0 0.0
2015-Mar-26 17:33N 39°54' W 075°12'0 0.0
2015-Mar-26 16:33N 39°54' W 075°12'2 2.5
2015-Mar-26 15:33N 39°52' W 075°14'9 8.6
2015-Mar-26 14:33N 39°49' W 075°24'3 2.8
2015-Mar-26 13:33N 39°50' W 075°21'9 8.6
2015-Mar-26 12:33N 39°53' W 075°11'0 0.0
2015-Mar-26 11:33N 39°53' W 075°11'0 0.0
2015-Mar-26 10:33N 39°53' W 075°11'0 0.0
2015-Mar-26 09:33N 39°53' W 075°11'0 0.0
2015-Mar-26 08:33N 39°53' W 075°11'0 0.0
2015-Mar-26 07:33N 39°53' W 075°11'0 0.0
2015-Mar-26 06:33N 39°53' W 075°11'0 0.0
2015-Mar-26 05:33N 39°53' W 075°11'0 0.0
2015-Mar-26 04:33N 39°53' W 075°11'1 1.0
2015-Mar-26 03:33N 39°53' W 075°09'2 1.6
2015-Mar-26 02:33N 39°53' W 075°11'0 0.4
2015-Mar-26 01:33N 39°53' W 075°11'0 0.4
2015-Mar-26 00:33N 39°53' W 075°11'0 0.0
2015-Mar-25 23:33N 39°53' W 075°11'0 0.0
2015-Mar-25 22:33N 39°53' W 075°11'0 0.0
2015-Mar-25 21:33N 39°53' W 075°11'0 0.0
2015-Mar-25 20:33N 39°53' W 075°11'0 0.0
2015-Mar-25 19:32N 39°53' W 075°11'3 3.1
2015-Mar-25 18:33N 39°51' W 075°14'1211.8
2015-Mar-25 17:33N 39°47' W 075°28'1211.9
2015-Mar-25 16:33N 39°36' W 075°34'1212.3
2015-Mar-25 15:33N 39°24' W 075°29'25 0.7
2015-Mar-24 04:34N 39°49' W 075°24'5 5.4
2015-Mar-24 03:33N 39°51' W 075°18'6 5.9
2015-Mar-24 02:33N 39°53' W 075°11'0 0.0
2015-Mar-24 01:34N 39°53' W 075°11'0 0.0
2015-Mar-24 00:33N 39°53' W 075°11'0 0.0
2015-Mar-23 23:33N 39°53' W 075°11'5 5.0
2015-Mar-23 22:33N 39°58' W 075°08'1 1.0
2015-Mar-23 21:33N 39°58' W 075°07'6 6.0
2015-Mar-23 20:33N 39°53' W 075°10'1010.5
2015-Mar-23 19:33N 39°49' W 075°23'1110.7
2015-Mar-23 18:33N 39°41' W 075°31'1010.1
2015-Mar-23 17:33N 39°31' W 075°33'1010.4
2015-Mar-23 16:33N 39°21' W 075°27'1211.7
2015-Mar-23 15:33N 39°12' W 075°17'1211.3
2015-Mar-23 14:28N 39°02' W 075°09'7 8.1
2015-Mar-23 13:33N 38°55' W 075°06'13 9.1
2015-Mar-23 12:04N 39°07' W 075°13'612.4
2015-Mar-23 11:34N 39°13' W 075°17'1615.9
2015-Mar-23 10:34N 39°25' W 075°31'1414.1
2015-Mar-23 09:34N 39°39' W 075°33'1312.9
2015-Mar-23 08:33N 39°49' W 075°23'1110.6
2015-Mar-23 07:33N 39°53' W 075°11'0 0.0
2015-Mar-23 06:33N 39°53' W 075°11'1 1.2
2015-Mar-23 05:33N 39°54' W 075°12'1 1.2
2015-Mar-23 04:33N 39°53' W 075°11'0 0.0
2015-Mar-23 03:33N 39°53' W 075°11'3 2.7
2015-Mar-23 02:33N 39°55' W 075°08'1010.2
2015-Mar-23 01:33N 40°03' W 074°59'12 9.9
2015-Mar-23 00:21N 40°08' W 074°45'4 1.9
2015-Mar-22 22:25N 40°07' W 074°50'1011.3
2015-Mar-22 21:33N 40°01' W 075°00'10 9.9
2015-Mar-22 20:33N 39°54' W 075°08'2 1.9
2015-Mar-22 19:33N 39°53' W 075°11'0 0.0
2015-Mar-22 18:33N 39°53' W 075°11'0 0.0
2015-Mar-22 17:33N 39°53' W 075°11'0 0.0
2015-Mar-22 16:33N 39°53' W 075°11'3 2.6
2015-Mar-22 15:33N 39°54' W 075°08'3 2.6
2015-Mar-22 14:33N 39°53' W 075°11'0 0.0
2015-Mar-22 13:33N 39°53' W 075°11'0 0.0
2015-Mar-22 12:33N 39°53' W 075°11'0 0.0
2015-Mar-22 11:33N 39°53' W 075°11'0 0.0
2015-Mar-22 10:33N 39°53' W 075°11'0 0.0
2015-Mar-22 09:33N 39°53' W 075°11'7 6.5
2015-Mar-22 08:33N 39°59' W 075°06'2 2.5
2015-Mar-22 07:33N 39°57' W 075°08'1 0.8
2015-Mar-22 06:33N 39°56' W 075°08'0 0.1
2015-Mar-22 05:33N 39°56' W 075°08'0 0.1
2015-Mar-22 04:33N 39°56' W 075°08'0 0.2
2015-Mar-22 03:33N 39°56' W 075°08'0 0.3
2015-Mar-22 02:33N 39°56' W 075°08'0 0.0
2015-Mar-22 01:33N 39°56' W 075°08'0 0.0
2015-Mar-22 00:33N 39°56' W 075°08'0 0.0
2015-Mar-21 23:33N 39°56' W 075°08'2 2.2
2015-Mar-21 22:33N 39°54' W 075°08'2 2.2
2015-Mar-21 21:33N 39°53' W 075°11'0 0.0
2015-Mar-21 20:33N 39°53' W 075°11'0 0.0
2015-Mar-21 19:33N 39°53' W 075°11'0 0.0
2015-Mar-21 18:33N 39°53' W 075°11'0 0.0
2015-Mar-21 17:33N 39°53' W 075°11'0 0.0
2015-Mar-21 16:33N 39°53' W 075°11'0 0.0
2015-Mar-21 15:33N 39°53' W 075°11'0 0.0
2015-Mar-21 14:33N 39°53' W 075°11'0 0.0
2015-Mar-21 13:33N 39°53' W 075°11'1 0.9
2015-Mar-21 12:33N 39°53' W 075°10'1 1.5
2015-Mar-21 11:33N 39°53' W 075°11'1 0.7
2015-Mar-21 10:33N 39°53' W 075°11'0 0.0
2015-Mar-21 09:33N 39°53' W 075°11'0 0.0
2015-Mar-21 08:33N 39°53' W 075°11'2 2.1
2015-Mar-21 07:33N 39°54' W 075°08'2 2.4
2015-Mar-21 06:33N 39°53' W 075°11'2 2.2
2015-Mar-21 05:33N 39°54' W 075°08'2 2.0
2015-Mar-21 04:33N 39°53' W 075°11'0 0.0
2015-Mar-21 03:33N 39°53' W 075°11'  

Dump ship's entire track history